sensor_id;sensor_type;location;lat;lon;timestamp;pressure;altitude;pressure_sealevel;temperature;humidity
26083;BME280;13848;49.018;12.078;2022-10-16T00:00:57;97681.63;;;14.94;97.70
26083;BME280;13848;49.018;12.078;2022-10-16T00:03:23;97671.22;;;14.86;98.07
26083;BME280;13848;49.018;12.078;2022-10-16T00:05:49;97677.84;;;14.95;97.80
26083;BME280;13848;49.018;12.078;2022-10-16T00:08:15;97672.78;;;14.82;98.49
26083;BME280;13848;49.018;12.078;2022-10-16T00:10:41;97672.13;;;14.75;98.90
26083;BME280;13848;49.018;12.078;2022-10-16T00:13:09;97664.16;;;14.85;98.33
26083;BME280;13848;49.018;12.078;2022-10-16T00:15:35;97661.00;;;14.93;97.65
26083;BME280;13848;49.018;12.078;2022-10-16T00:18:02;97673.94;;;14.86;98.08
26083;BME280;13848;49.018;12.078;2022-10-16T00:20:28;97671.97;;;14.81;98.20
26083;BME280;13848;49.018;12.078;2022-10-16T00:22:54;97675.56;;;14.87;97.77
26083;BME280;13848;49.018;12.078;2022-10-16T00:25:20;97676.56;;;14.81;98.16
26083;BME280;13848;49.018;12.078;2022-10-16T00:27:46;97683.16;;;14.85;98.20
26083;BME280;13848;49.018;12.078;2022-10-16T00:30:13;97674.75;;;14.86;97.91
26083;BME280;13848;49.018;12.078;2022-10-16T00:32:39;97674.81;;;14.92;97.50
26083;BME280;13848;49.018;12.078;2022-10-16T00:35:05;97674.00;;;14.91;97.51
26083;BME280;13848;49.018;12.078;2022-10-16T00:37:31;97683.19;;;14.90;98.04
26083;BME280;13848;49.018;12.078;2022-10-16T00:39:57;97684.28;;;14.89;97.62
26083;BME280;13848;49.018;12.078;2022-10-16T00:42:23;97676.94;;;14.89;97.62
26083;BME280;13848;49.018;12.078;2022-10-16T00:44:51;97670.50;;;14.74;98.76
26083;BME280;13848;49.018;12.078;2022-10-16T00:47:24;97674.78;;;14.70;99.22
26083;BME280;13848;49.018;12.078;2022-10-16T00:49:57;97669.16;;;14.76;98.61
26083;BME280;13848;49.018;12.078;2022-10-16T00:52:24;97664.72;;;14.70;99.30
26083;BME280;13848;49.018;12.078;2022-10-16T00:54:52;97677.56;;;14.58;100.00
26083;BME280;13848;49.018;12.078;2022-10-16T00:57:19;97670.75;;;14.55;100.00
26083;BME280;13848;49.018;12.078;2022-10-16T00:59:45;97675.75;;;14.63;99.88
26083;BME280;13848;49.018;12.078;2022-10-16T01:02:13;97687.19;;;14.66;99.74
26083;BME280;13848;49.018;12.078;2022-10-16T01:04:43;97677.91;;;14.61;100.00
26083;BME280;13848;49.018;12.078;2022-10-16T01:07:14;97688.09;;;14.54;100.00
26083;BME280;13848;49.018;12.078;2022-10-16T01:09:51;97676.75;;;14.57;100.00
26083;BME280;13848;49.018;12.078;2022-10-16T01:12:25;97672.47;;;14.61;100.00
26083;BME280;13848;49.018;12.078;2022-10-16T01:14:59;97679.03;;;14.66;99.75
26083;BME280;13848;49.018;12.078;2022-10-16T01:17:30;97681.94;;;14.59;100.00
26083;BME280;13848;49.018;12.078;2022-10-16T01:20:08;97679.88;;;14.49;100.00
26083;BME280;13848;49.018;12.078;2022-10-16T01:22:43;97687.09;;;14.60;100.00
26083;BME280;13848;49.018;12.078;2022-10-16T01:25:18;97690.81;;;14.54;100.00
26083;BME280;13848;49.018;12.078;2022-10-16T01:27:50;97690.16;;;14.47;100.00
26083;BME280;13848;49.018;12.078;2022-10-16T01:30:21;97698.63;;;14.51;100.00
26083;BME280;13848;49.018;12.078;2022-10-16T01:32:50;97705.19;;;14.55;100.00
26083;BME280;13848;49.018;12.078;2022-10-16T01:35:22;97716.69;;;14.45;100.00
26083;BME280;13848;49.018;12.078;2022-10-16T01:37:52;97709.31;;;14.57;100.00
26083;BME280;13848;49.018;12.078;2022-10-16T01:40:20;97713.75;;;14.63;100.00
26083;BME280;13848;49.018;12.078;2022-10-16T01:42:54;97711.13;;;14.69;99.73
26083;BME280;13848;49.018;12.078;2022-10-16T01:45:22;97713.59;;;14.70;98.82
26083;BME280;13848;49.018;12.078;2022-10-16T01:47:49;97708.41;;;14.69;99.05
26083;BME280;13848;49.018;12.078;2022-10-16T01:50:18;97713.75;;;14.63;99.36
26083;BME280;13848;49.018;12.078;2022-10-16T01:52:47;97720.16;;;14.57;99.66
26083;BME280;13848;49.018;12.078;2022-10-16T01:55:19;97719.09;;;14.58;99.60
26083;BME280;13848;49.018;12.078;2022-10-16T01:57:51;97718.53;;;14.56;99.85
26083;BME280;13848;49.018;12.078;2022-10-16T02:00:20;97713.59;;;14.53;100.00
26083;BME280;13848;49.018;12.078;2022-10-16T02:02:49;97716.03;;;14.55;99.94
26083;BME280;13848;49.018;12.078;2022-10-16T02:05:22;97711.47;;;14.55;99.72
26083;BME280;13848;49.018;12.078;2022-10-16T02:07:50;97719.66;;;14.60;99.45
26083;BME280;13848;49.018;12.078;2022-10-16T02:10:16;97726.16;;;14.59;99.51
26083;BME280;13848;49.018;12.078;2022-10-16T02:12:46;97717.94;;;14.54;99.62
26083;BME280;13848;49.018;12.078;2022-10-16T02:15:16;97722.31;;;14.55;99.85
26083;BME280;13848;49.018;12.078;2022-10-16T02:17:42;97725.91;;;14.44;100.00
26083;BME280;13848;49.018;12.078;2022-10-16T02:20:09;97720.00;;;14.47;100.00
26083;BME280;13848;49.018;12.078;2022-10-16T02:22:37;97713.50;;;14.48;100.00
26083;BME280;13848;49.018;12.078;2022-10-16T02:25:07;97716.28;;;14.53;99.41
26083;BME280;13848;49.018;12.078;2022-10-16T02:27:38;97714.41;;;14.54;99.72
26083;BME280;13848;49.018;12.078;2022-10-16T02:30:09;97715.81;;;14.56;99.25
26083;BME280;13848;49.018;12.078;2022-10-16T02:32:41;97713.09;;;14.56;99.02
26083;BME280;13848;49.018;12.078;2022-10-16T02:35:08;97712.03;;;14.57;99.01
26083;BME280;13848;49.018;12.078;2022-10-16T02:37:36;97708.75;;;14.55;99.20
26083;BME280;13848;49.018;12.078;2022-10-16T02:40:03;97715.47;;;14.53;99.40
26083;BME280;13848;49.018;12.078;2022-10-16T02:42:33;97717.84;;;14.49;99.59
26083;BME280;13848;49.018;12.078;2022-10-16T02:44:59;97720.34;;;14.51;99.58
26083;BME280;13848;49.018;12.078;2022-10-16T02:47:25;97726.59;;;14.51;99.20
26083;BME280;13848;49.018;12.078;2022-10-16T02:49:53;97726.72;;;14.45;99.57
26083;BME280;13848;49.018;12.078;2022-10-16T02:52:19;97732.97;;;14.45;99.75
26083;BME280;13848;49.018;12.078;2022-10-16T02:54:45;97736.16;;;14.42;99.66
26083;BME280;13848;49.018;12.078;2022-10-16T02:57:10;97736.97;;;14.43;99.87
26083;BME280;13848;49.018;12.078;2022-10-16T02:59:37;97741.09;;;14.45;99.61
26083;BME280;13848;49.018;12.078;2022-10-16T03:02:03;97737.69;;;14.50;99.12
26083;BME280;13848;49.018;12.078;2022-10-16T03:04:29;97733.66;;;14.52;98.99
26083;BME280;13848;49.018;12.078;2022-10-16T03:06:56;97723.88;;;14.51;99.18
26083;BME280;13848;49.018;12.078;2022-10-16T03:09:22;97722.94;;;14.46;99.52
26083;BME280;13848;49.018;12.078;2022-10-16T03:11:48;97724.72;;;14.40;99.85
26083;BME280;13848;49.018;12.078;2022-10-16T03:14:14;97740.66;;;14.36;100.00
26083;BME280;13848;49.018;12.078;2022-10-16T03:16:40;97749.72;;;14.42;99.96
26083;BME280;13848;49.018;12.078;2022-10-16T03:19:06;97733.13;;;14.38;100.00
26083;BME280;13848;49.018;12.078;2022-10-16T03:21:32;97729.66;;;14.43;100.00
26083;BME280;13848;49.018;12.078;2022-10-16T03:23:59;97735.06;;;14.43;99.97
26083;BME280;13848;49.018;12.078;2022-10-16T03:26:25;97740.50;;;14.43;100.00
26083;BME280;13848;49.018;12.078;2022-10-16T03:28:51;97753.03;;;14.44;99.90
26083;BME280;13848;49.018;12.078;2022-10-16T03:31:17;97748.75;;;14.48;99.63
26083;BME280;13848;49.018;12.078;2022-10-16T03:33:43;97750.75;;;14.53;99.22
26083;BME280;13848;49.018;12.078;2022-10-16T03:36:09;97744.25;;;14.54;99.20
26083;BME280;13848;49.018;12.078;2022-10-16T03:38:35;97748.28;;;14.51;99.31
26083;BME280;13848;49.018;12.078;2022-10-16T03:41:02;97753.50;;;14.41;100.00
26083;BME280;13848;49.018;12.078;2022-10-16T03:43:28;97752.31;;;14.37;100.00
26083;BME280;13848;49.018;12.078;2022-10-16T03:45:54;97751.59;;;14.42;100.00
26083;BME280;13848;49.018;12.078;2022-10-16T03:48:20;97757.84;;;14.42;100.00
26083;BME280;13848;49.018;12.078;2022-10-16T03:50:46;97750.03;;;14.29;100.00
26083;BME280;13848;49.018;12.078;2022-10-16T03:53:12;97756.72;;;14.38;100.00
26083;BME280;13848;49.018;12.078;2022-10-16T03:55:38;97743.81;;;14.45;100.00
26083;BME280;13848;49.018;12.078;2022-10-16T03:58:08;97740.03;;;14.46;100.00
26083;BME280;13848;49.018;12.078;2022-10-16T04:00:33;97736.56;;;14.34;100.00
26083;BME280;13848;49.018;12.078;2022-10-16T04:02:59;97730.06;;;14.35;100.00
26083;BME280;13848;49.018;12.078;2022-10-16T04:05:26;97735.59;;;14.40;100.00
26083;BME280;13848;49.018;12.078;2022-10-16T04:07:52;97746.34;;;14.35;100.00
26083;BME280;13848;49.018;12.078;2022-10-16T04:10:18;97751.41;;;14.31;99.95
26083;BME280;13848;49.018;12.078;2022-10-16T04:12:44;97750.84;;;14.29;100.00
26083;BME280;13848;49.018;12.078;2022-10-16T04:15:11;97758.84;;;14.07;100.00
26083;BME280;13848;49.018;12.078;2022-10-16T04:17:37;97754.03;;;14.09;100.00
26083;BME280;13848;49.018;12.078;2022-10-16T04:20:04;97765.09;;;14.08;100.00
26083;BME280;13848;49.018;12.078;2022-10-16T04:22:30;97771.53;;;14.19;100.00
26083;BME280;13848;49.018;12.078;2022-10-16T04:24:56;97776.47;;;14.22;100.00
26083;BME280;13848;49.018;12.078;2022-10-16T04:27:22;97778.50;;;14.15;100.00
26083;BME280;13848;49.018;12.078;2022-10-16T04:29:48;97786.88;;;14.13;100.00
26083;BME280;13848;49.018;12.078;2022-10-16T04:32:16;97784.38;;;14.23;100.00
26083;BME280;13848;49.018;12.078;2022-10-16T04:34:42;97788.00;;;14.29;100.00
26083;BME280;13848;49.018;12.078;2022-10-16T04:37:08;97783.03;;;14.26;100.00
26083;BME280;13848;49.018;12.078;2022-10-16T04:39:34;97782.38;;;14.19;100.00
26083;BME280;13848;49.018;12.078;2022-10-16T04:41:59;97788.16;;;14.22;100.00
26083;BME280;13848;49.018;12.078;2022-10-16T04:44:25;97786.72;;;14.20;100.00
26083;BME280;13848;49.018;12.078;2022-10-16T04:46:51;97784.16;;;14.13;100.00
26083;BME280;13848;49.018;12.078;2022-10-16T04:49:19;97788.63;;;14.19;100.00
26083;BME280;13848;49.018;12.078;2022-10-16T04:51:45;97796.09;;;14.12;100.00
26083;BME280;13848;49.018;12.078;2022-10-16T04:54:11;97785.97;;;14.07;100.00
26083;BME280;13848;49.018;12.078;2022-10-16T04:56:37;97788.66;;;14.07;100.00
26083;BME280;13848;49.018;12.078;2022-10-16T04:59:03;97782.88;;;14.16;100.00
26083;BME280;13848;49.018;12.078;2022-10-16T05:01:29;97784.00;;;14.20;100.00
26083;BME280;13848;49.018;12.078;2022-10-16T05:03:55;97785.81;;;14.14;100.00
26083;BME280;13848;49.018;12.078;2022-10-16T05:06:22;97790.31;;;14.08;100.00
26083;BME280;13848;49.018;12.078;2022-10-16T05:08:48;97797.28;;;14.04;100.00
26083;BME280;13848;49.018;12.078;2022-10-16T05:11:14;97802.88;;;13.98;100.00
26083;BME280;13848;49.018;12.078;2022-10-16T05:13:40;97804.72;;;13.97;100.00
26083;BME280;13848;49.018;12.078;2022-10-16T05:16:06;97793.53;;;14.05;100.00
26083;BME280;13848;49.018;12.078;2022-10-16T05:18:32;97794.28;;;13.89;100.00
26083;BME280;13848;49.018;12.078;2022-10-16T05:20:58;97803.69;;;13.98;100.00
26083;BME280;13848;49.018;12.078;2022-10-16T05:23:25;97801.81;;;13.87;100.00
26083;BME280;13848;49.018;12.078;2022-10-16T05:25:52;97801.16;;;13.80;100.00
26083;BME280;13848;49.018;12.078;2022-10-16T05:28:18;97807.84;;;13.77;100.00
26083;BME280;13848;49.018;12.078;2022-10-16T05:30:44;97815.41;;;13.75;100.00
26083;BME280;13848;49.018;12.078;2022-10-16T05:33:10;97811.50;;;13.83;100.00
26083;BME280;13848;49.018;12.078;2022-10-16T05:35:36;97803.56;;;13.93;100.00
26083;BME280;13848;49.018;12.078;2022-10-16T05:38:02;97803.09;;;13.96;100.00
26083;BME280;13848;49.018;12.078;2022-10-16T05:40:29;97810.06;;;13.92;100.00
26083;BME280;13848;49.018;12.078;2022-10-16T05:42:55;97787.41;;;13.98;100.00
26083;BME280;13848;49.018;12.078;2022-10-16T05:45:22;97783.19;;;13.91;100.00
26083;BME280;13848;49.018;12.078;2022-10-16T05:47:47;97774.22;;;13.90;100.00
26083;BME280;13848;49.018;12.078;2022-10-16T05:50:14;97757.97;;;13.90;100.00
26083;BME280;13848;49.018;12.078;2022-10-16T05:52:40;97765.28;;;13.90;100.00
26083;BME280;13848;49.018;12.078;2022-10-16T05:55:06;97772.28;;;13.74;100.00
26083;BME280;13848;49.018;12.078;2022-10-16T05:57:34;97781.56;;;13.78;100.00
26083;BME280;13848;49.018;12.078;2022-10-16T06:00:00;97791.31;;;13.91;100.00
26083;BME280;13848;49.018;12.078;2022-10-16T06:02:26;97793.19;;;13.90;100.00
26083;BME280;13848;49.018;12.078;2022-10-16T06:04:52;97797.09;;;13.94;100.00
26083;BME280;13848;49.018;12.078;2022-10-16T06:07:18;97801.47;;;13.83;100.00
26083;BME280;13848;49.018;12.078;2022-10-16T06:09:44;97803.94;;;13.85;100.00
26083;BME280;13848;49.018;12.078;2022-10-16T06:12:13;97810.53;;;13.89;100.00
26083;BME280;13848;49.018;12.078;2022-10-16T06:14:40;97810.44;;;13.84;100.00
26083;BME280;13848;49.018;12.078;2022-10-16T06:17:06;97813.97;;;13.84;100.00
26083;BME280;13848;49.018;12.078;2022-10-16T06:19:32;97815.16;;;13.77;100.00
26083;BME280;13848;49.018;12.078;2022-10-16T06:21:58;97815.28;;;13.82;100.00
26083;BME280;13848;49.018;12.078;2022-10-16T06:24:24;97818.31;;;13.85;100.00
26083;BME280;13848;49.018;12.078;2022-10-16T06:26:50;97822.09;;;13.84;100.00
26083;BME280;13848;49.018;12.078;2022-10-16T06:29:16;97831.97;;;13.91;100.00
26083;BME280;13848;49.018;12.078;2022-10-16T06:31:44;97836.69;;;13.95;100.00
26083;BME280;13848;49.018;12.078;2022-10-16T06:34:10;97844.91;;;14.00;100.00
26083;BME280;13848;49.018;12.078;2022-10-16T06:36:37;97849.22;;;13.73;100.00
26083;BME280;13848;49.018;12.078;2022-10-16T06:39:03;97854.84;;;13.83;100.00
26083;BME280;13848;49.018;12.078;2022-10-16T06:41:29;97853.22;;;13.82;100.00
26083;BME280;13848;49.018;12.078;2022-10-16T06:43:55;97861.50;;;13.64;100.00
26083;BME280;13848;49.018;12.078;2022-10-16T06:46:23;97869.25;;;13.72;100.00
26083;BME280;13848;49.018;12.078;2022-10-16T06:48:51;97873.72;;;13.78;100.00
26083;BME280;13848;49.018;12.078;2022-10-16T06:51:19;97883.59;;;13.84;100.00
26083;BME280;13848;49.018;12.078;2022-10-16T06:53:47;97881.97;;;13.83;100.00
26083;BME280;13848;49.018;12.078;2022-10-16T06:56:15;97877.22;;;13.90;100.00
26083;BME280;13848;49.018;12.078;2022-10-16T06:58:42;97882.66;;;13.90;100.00
26083;BME280;13848;49.018;12.078;2022-10-16T07:01:09;97895.25;;;13.84;100.00
26083;BME280;13848;49.018;12.078;2022-10-16T07:03:36;97900.81;;;13.78;100.00
26083;BME280;13848;49.018;12.078;2022-10-16T07:06:04;97910.97;;;13.71;100.00
26083;BME280;13848;49.018;12.078;2022-10-16T07:08:31;97908.38;;;13.76;100.00
26083;BME280;13848;49.018;12.078;2022-10-16T07:11:00;97908.47;;;13.81;100.00
26083;BME280;13848;49.018;12.078;2022-10-16T07:13:27;97912.59;;;13.95;100.00
26083;BME280;13848;49.018;12.078;2022-10-16T07:15:53;97912.94;;;13.99;100.00
26083;BME280;13848;49.018;12.078;2022-10-16T07:18:19;97921.53;;;14.07;100.00
26083;BME280;13848;49.018;12.078;2022-10-16T07:20:45;97930.00;;;14.23;100.00
26083;BME280;13848;49.018;12.078;2022-10-16T07:23:12;97931.63;;;14.24;100.00
26083;BME280;13848;49.018;12.078;2022-10-16T07:25:38;97929.50;;;14.26;99.88
26083;BME280;13848;49.018;12.078;2022-10-16T07:28:04;97926.47;;;14.10;100.00
26083;BME280;13848;49.018;12.078;2022-10-16T07:30:30;97926.81;;;14.14;100.00
26083;BME280;13848;49.018;12.078;2022-10-16T07:32:56;97925.03;;;14.20;100.00
26083;BME280;13848;49.018;12.078;2022-10-16T07:35:22;97915.78;;;14.44;100.00
26083;BME280;13848;49.018;12.078;2022-10-16T07:37:48;97918.56;;;14.73;99.06
26083;BME280;13848;49.018;12.078;2022-10-16T07:40:16;97917.19;;;14.87;98.81
26083;BME280;13848;49.018;12.078;2022-10-16T07:42:41;97927.59;;;15.24;97.79
26083;BME280;13848;49.018;12.078;2022-10-16T07:45:08;97921.38;;;15.74;96.71
26083;BME280;13848;49.018;12.078;2022-10-16T07:47:34;97927.28;;;15.87;93.93
26083;BME280;13848;49.018;12.078;2022-10-16T07:50:00;97931.56;;;16.22;95.18
26083;BME280;13848;49.018;12.078;2022-10-16T07:52:26;97936.94;;;16.39;93.32
26083;BME280;13848;49.018;12.078;2022-10-16T07:54:52;97940.56;;;16.44;88.79
26083;BME280;13848;49.018;12.078;2022-10-16T07:57:19;97936.66;;;16.35;89.07
26083;BME280;13848;49.018;12.078;2022-10-16T07:59:45;97932.13;;;16.46;87.63
26083;BME280;13848;49.018;12.078;2022-10-16T08:02:12;97939.94;;;16.37;89.55
26083;BME280;13848;49.018;12.078;2022-10-16T08:04:37;97934.44;;;16.54;88.65
26083;BME280;13848;49.018;12.078;2022-10-16T08:07:03;97931.59;;;16.93;86.10
26083;BME280;13848;49.018;12.078;2022-10-16T08:09:29;97939.44;;;17.11;87.54
26083;BME280;13848;49.018;12.078;2022-10-16T08:11:55;97947.78;;;16.99;86.91
26083;BME280;13848;49.018;12.078;2022-10-16T08:14:23;97950.56;;;16.61;86.73
26083;BME280;13848;49.018;12.078;2022-10-16T08:16:49;97948.38;;;17.07;83.58
26083;BME280;13848;49.018;12.078;2022-10-16T08:19:14;97961.91;;;17.55;85.36
26083;BME280;13848;49.018;12.078;2022-10-16T08:21:40;97955.28;;;18.16;83.03
26083;BME280;13848;49.018;12.078;2022-10-16T08:24:06;97959.53;;;18.49;81.39
26083;BME280;13848;49.018;12.078;2022-10-16T08:26:32;97956.75;;;17.91;79.56
26083;BME280;13848;49.018;12.078;2022-10-16T08:28:58;97955.13;;;17.58;79.46
26083;BME280;13848;49.018;12.078;2022-10-16T08:31:29;97966.78;;;17.80;79.50
26083;BME280;13848;49.018;12.078;2022-10-16T08:33:55;97962.00;;;18.03;79.88
26083;BME280;13848;49.018;12.078;2022-10-16T08:36:20;97964.28;;;18.11;79.56
26083;BME280;13848;49.018;12.078;2022-10-16T08:38:48;97979.44;;;17.97;79.14
26083;BME280;13848;49.018;12.078;2022-10-16T08:41:48;97970.56;;;17.79;79.18
26083;BME280;13848;49.018;12.078;2022-10-16T08:44:28;97967.06;;;17.52;78.63
26083;BME280;13848;49.018;12.078;2022-10-16T08:47:02;97960.53;;;17.85;81.30
26083;BME280;13848;49.018;12.078;2022-10-16T08:49:33;97955.47;;;17.99;80.09
26083;BME280;13848;49.018;12.078;2022-10-16T08:51:59;97957.91;;;18.00;76.93
26083;BME280;13848;49.018;12.078;2022-10-16T08:54:29;97949.13;;;17.88;77.89
26083;BME280;13848;49.018;12.078;2022-10-16T08:56:55;97955.38;;;17.89;78.94
26083;BME280;13848;49.018;12.078;2022-10-16T08:59:21;97950.28;;;17.65;77.18
26083;BME280;13848;49.018;12.078;2022-10-16T09:01:50;97939.28;;;17.87;77.49
26083;BME280;13848;49.018;12.078;2022-10-16T09:04:45;97958.56;;;17.75;77.25
26083;BME280;13848;49.018;12.078;2022-10-16T09:07:20;97959.81;;;17.68;77.90
26083;BME280;13848;49.018;12.078;2022-10-16T09:10:02;97963.06;;;17.97;76.13
26083;BME280;13848;49.018;12.078;2022-10-16T09:12:35;97954.47;;;18.15;75.94
26083;BME280;13848;49.018;12.078;2022-10-16T09:15:12;97958.78;;;18.58;75.69
26083;BME280;13848;49.018;12.078;2022-10-16T09:17:49;97957.16;;;18.63;74.52
26083;BME280;13848;49.018;12.078;2022-10-16T09:20:27;97957.91;;;19.16;72.52
26083;BME280;13848;49.018;12.078;2022-10-16T09:23:08;97956.00;;;19.21;73.10
26083;BME280;13848;49.018;12.078;2022-10-16T09:25:39;97949.44;;;19.48;71.47
26083;BME280;13848;49.018;12.078;2022-10-16T09:28:07;97958.25;;;19.60;72.11
26083;BME280;13848;49.018;12.078;2022-10-16T09:30:33;97963.72;;;19.85;70.52
26083;BME280;13848;49.018;12.078;2022-10-16T09:32:59;97960.72;;;19.61;70.95
26083;BME280;13848;49.018;12.078;2022-10-16T09:35:32;97970.81;;;19.76;69.24
26083;BME280;13848;49.018;12.078;2022-10-16T09:38:00;97966.16;;;20.02;69.68
26083;BME280;13848;49.018;12.078;2022-10-16T09:40:29;97982.28;;;19.58;68.39
26083;BME280;13848;49.018;12.078;2022-10-16T09:43:02;97991.31;;;19.43;70.60
26083;BME280;13848;49.018;12.078;2022-10-16T09:45:32;97991.66;;;19.77;70.08
26083;BME280;13848;49.018;12.078;2022-10-16T09:48:01;97988.81;;;20.54;69.10
26083;BME280;13848;49.018;12.078;2022-10-16T09:50:37;98002.66;;;20.88;66.40
26083;BME280;13848;49.018;12.078;2022-10-16T09:53:11;98000.06;;;20.27;69.75
26083;BME280;13848;49.018;12.078;2022-10-16T09:55:47;98002.03;;;21.06;67.71
26083;BME280;13848;49.018;12.078;2022-10-16T09:58:13;98003.47;;;20.93;65.71
26083;BME280;13848;49.018;12.078;2022-10-16T10:00:41;98002.69;;;20.78;68.40
26083;BME280;13848;49.018;12.078;2022-10-16T10:03:10;97993.06;;;20.90;67.08
26083;BME280;13848;49.018;12.078;2022-10-16T10:05:39;97998.00;;;20.88;65.85
26083;BME280;13848;49.018;12.078;2022-10-16T10:08:05;97994.75;;;21.36;65.67
26083;BME280;13848;49.018;12.078;2022-10-16T10:10:33;98008.88;;;21.58;64.41
26083;BME280;13848;49.018;12.078;2022-10-16T10:13:00;98001.38;;;21.24;63.89
26083;BME280;13848;49.018;12.078;2022-10-16T10:15:29;98009.69;;;21.59;63.81
26083;BME280;13848;49.018;12.078;2022-10-16T10:17:58;98005.47;;;20.72;65.11
26083;BME280;13848;49.018;12.078;2022-10-16T10:20:26;98011.38;;;21.55;65.87
26083;BME280;13848;49.018;12.078;2022-10-16T10:22:54;98003.97;;;21.50;64.78
26083;BME280;13848;49.018;12.078;2022-10-16T10:25:34;98003.22;;;21.78;62.16
26083;BME280;13848;49.018;12.078;2022-10-16T10:28:22;97991.16;;;22.14;63.13
26083;BME280;13848;49.018;12.078;2022-10-16T10:30:56;97983.97;;;22.18;62.49
26083;BME280;13848;49.018;12.078;2022-10-16T10:33:33;97987.31;;;22.68;62.36
26083;BME280;13848;49.018;12.078;2022-10-16T10:36:12;97998.34;;;22.87;59.45
26083;BME280;13848;49.018;12.078;2022-10-16T10:38:48;97990.03;;;22.15;61.23
26083;BME280;13848;49.018;12.078;2022-10-16T10:41:33;97986.13;;;21.58;62.59
26083;BME280;13848;49.018;12.078;2022-10-16T10:44:08;97987.50;;;21.55;62.11
26083;BME280;13848;49.018;12.078;2022-10-16T10:46:42;97981.78;;;21.51;62.98
26083;BME280;13848;49.018;12.078;2022-10-16T10:49:19;97993.75;;;21.61;63.02
26083;BME280;13848;49.018;12.078;2022-10-16T10:52:00;97995.59;;;21.26;63.42
26083;BME280;13848;49.018;12.078;2022-10-16T10:54:35;97992.81;;;21.41;63.32
26083;BME280;13848;49.018;12.078;2022-10-16T10:57:10;97989.16;;;21.02;64.22
26083;BME280;13848;49.018;12.078;2022-10-16T10:59:54;98001.72;;;21.13;65.19
26083;BME280;13848;49.018;12.078;2022-10-16T11:02:29;97995.28;;;20.83;64.22
26083;BME280;13848;49.018;12.078;2022-10-16T11:05:19;97988.34;;;21.01;64.92
26083;BME280;13848;49.018;12.078;2022-10-16T11:07:51;97985.50;;;20.62;65.50
26083;BME280;13848;49.018;12.078;2022-10-16T11:10:22;97980.44;;;20.89;65.20
26083;BME280;13848;49.018;12.078;2022-10-16T11:12:53;97977.19;;;20.87;65.08
26083;BME280;13848;49.018;12.078;2022-10-16T11:15:24;97980.16;;;20.96;65.33
26083;BME280;13848;49.018;12.078;2022-10-16T11:17:56;97984.88;;;20.75;64.80
26083;BME280;13848;49.018;12.078;2022-10-16T11:20:26;97989.75;;;20.93;65.33
26083;BME280;13848;49.018;12.078;2022-10-16T11:22:57;97987.78;;;21.54;65.75
26083;BME280;13848;49.018;12.078;2022-10-16T11:25:28;97986.72;;;21.49;63.58
26083;BME280;13848;49.018;12.078;2022-10-16T11:28:00;97991.47;;;21.34;63.88
26083;BME280;13848;49.018;12.078;2022-10-16T11:30:28;97999.28;;;21.56;64.16
26083;BME280;13848;49.018;12.078;2022-10-16T11:33:21;97992.78;;;21.46;63.58
26083;BME280;13848;49.018;12.078;2022-10-16T11:35:53;97981.03;;;21.75;63.29
26083;BME280;13848;49.018;12.078;2022-10-16T11:38:26;97977.63;;;21.88;62.96
26083;BME280;13848;49.018;12.078;2022-10-16T11:40:58;97976.03;;;21.82;62.75
26083;BME280;13848;49.018;12.078;2022-10-16T11:43:29;97977.53;;;21.98;62.69
26083;BME280;13848;49.018;12.078;2022-10-16T11:46:03;97974.44;;;22.87;61.83
26083;BME280;13848;49.018;12.078;2022-10-16T11:48:33;97972.91;;;23.19;60.20
26083;BME280;13848;49.018;12.078;2022-10-16T11:51:06;97968.50;;;23.36;59.04
26083;BME280;13848;49.018;12.078;2022-10-16T11:53:44;97957.03;;;23.86;58.21
26083;BME280;13848;49.018;12.078;2022-10-16T11:56:13;97967.00;;;23.82;58.34
26083;BME280;13848;49.018;12.078;2022-10-16T11:58:49;97964.59;;;23.94;57.32
26083;BME280;13848;49.018;12.078;2022-10-16T12:01:22;97971.47;;;24.43;55.97
26083;BME280;13848;49.018;12.078;2022-10-16T12:04:02;97970.84;;;24.46;56.95
26083;BME280;13848;49.018;12.078;2022-10-16T12:06:34;97971.47;;;24.43;54.98
26083;BME280;13848;49.018;12.078;2022-10-16T12:09:03;97959.63;;;24.84;54.50
26083;BME280;13848;49.018;12.078;2022-10-16T12:11:36;97966.56;;;24.81;54.01
26083;BME280;13848;49.018;12.078;2022-10-16T12:14:06;97959.81;;;24.87;55.33
26083;BME280;13848;49.018;12.078;2022-10-16T12:16:32;97946.78;;;24.65;53.77
26083;BME280;13848;49.018;12.078;2022-10-16T12:19:13;97956.97;;;24.51;55.88
26083;BME280;13848;49.018;12.078;2022-10-16T12:21:40;97954.84;;;24.15;55.70
26083;BME280;13848;49.018;12.078;2022-10-16T12:24:21;97954.44;;;24.08;56.39
26083;BME280;13848;49.018;12.078;2022-10-16T12:26:49;97955.28;;;24.23;55.41
26083;BME280;13848;49.018;12.078;2022-10-16T12:29:28;97955.34;;;24.50;55.73
26083;BME280;13848;49.018;12.078;2022-10-16T12:31:56;97956.47;;;24.49;55.50
26083;BME280;13848;49.018;12.078;2022-10-16T12:34:26;97953.50;;;23.99;55.63
26083;BME280;13848;49.018;12.078;2022-10-16T12:36:53;97966.63;;;23.88;55.38
26083;BME280;13848;49.018;12.078;2022-10-16T12:39:21;97966.00;;;23.78;55.69
26083;BME280;13848;49.018;12.078;2022-10-16T12:42:00;97953.63;;;23.75;57.13
26083;BME280;13848;49.018;12.078;2022-10-16T12:44:32;97963.91;;;23.70;57.13
26083;BME280;13848;49.018;12.078;2022-10-16T12:46:59;97961.97;;;23.51;57.57
26083;BME280;13848;49.018;12.078;2022-10-16T12:49:31;97963.00;;;23.18;57.63
26083;BME280;13848;49.018;12.078;2022-10-16T12:51:58;97968.97;;;23.25;57.95
26083;BME280;13848;49.018;12.078;2022-10-16T12:54:27;97964.72;;;23.51;57.27